Time;durP1;ratioP1;P1;durP2;ratioP2;P2;SDS_P1;SDS_P2;PMS_P1;PMS_P2;Temp;Humidity;BMP_temperature;BMP_pressure;BME280_temperature;BME280_humidity;BME280_pressure;Samples;Min_cycle;Max_cycle;Signal;HPM_P1;HPM_P2
2021/10/12 00:00:32;;;;;;;94.80;26.33;;;;;;;14.26;81.03;99154.94;5033985;28;20498;-76
2021/10/12 00:02:57;;;;;;;167.32;28.70;;;;;;;14.44;81.11;99179.00;5033960;28;20023;-76
2021/10/12 00:05:22;;;;;;;213.55;34.28;;;;;;;14.01;81.21;99101.72;5033939;28;20025;-76
2021/10/12 00:07:48;;;;;;;62.50;26.15;;;;;;;14.24;81.49;99125.94;5034079;28;20401;-77
2021/10/12 00:10:14;;;;;;;107.95;28.48;;;;;;;14.51;81.25;99158.53;5033851;28;20029;-76
2021/10/12 00:12:39;;;;;;;58.90;24.50;;;;;;;14.18;81.44;99116.16;5033706;28;20040;-76
2021/10/12 00:15:06;;;;;;;224.73;46.95;;;;;;;14.40;81.39;99139.75;5033520;28;20119;-76
2021/10/12 00:17:31;;;;;;;108.40;40.40;;;;;;;14.47;81.30;99172.44;5032523;28;20053;-77
2021/10/12 00:19:57;;;;;;;129.52;33.15;;;;;;;14.51;81.61;99176.31;5033582;28;20057;-77
2021/10/12 00:22:22;;;;;;;76.55;26.63;;;;;;;14.12;81.89;99126.78;5033652;28;20565;-78
2021/10/12 00:24:48;;;;;;;132.05;29.42;;;;;;;13.70;81.68;99059.19;5033793;28;20025;-76
2021/10/12 00:27:13;;;;;;;109.68;26.67;;;;;;;14.42;82.01;99158.94;5033500;28;20025;-77
2021/10/12 00:29:38;;;;;;;77.88;26.13;;;;;;;14.43;81.96;99150.81;5033517;28;20053;-77
2021/10/12 00:32:04;;;;;;;192.85;30.13;;;;;;;14.47;81.85;99159.97;5033281;28;20074;-77
2021/10/12 00:34:30;;;;;;;110.88;26.40;;;;;;;14.51;81.97;99161.19;5033411;28;20036;-78
2021/10/12 00:36:55;;;;;;;87.10;24.60;;;;;;;14.08;82.17;99088.41;5033333;28;20061;-78
2021/10/12 00:39:20;;;;;;;92.22;27.58;;;;;;;14.35;82.01;99135.09;5033386;28;20079;-78
2021/10/12 00:41:46;;;;;;;85.07;25.20;;;;;;;14.23;81.96;99119.00;5033397;28;20036;-77
2021/10/12 00:44:11;;;;;;;58.78;22.40;;;;;;;14.16;82.04;99101.47;5033289;28;20020;-78
2021/10/12 00:46:37;;;;;;;55.88;23.67;;;;;;;14.59;82.03;99170.75;5033451;28;20033;-78
2021/10/12 00:49:03;;;;;;;60.53;22.90;;;;;;;14.54;82.06;99168.72;5015343;28;20538;-77
2021/10/12 00:51:29;;;;;;;67.68;24.98;;;;;;;14.50;82.29;99178.16;5033153;28;20493;-78
2021/10/12 00:53:55;;;;;;;94.97;31.95;;;;;;;14.48;82.01;99161.59;5032955;28;20021;-78
2021/10/12 00:56:21;;;;;;;45.42;22.02;;;;;;;14.35;82.01;99148.38;5033150;28;21216;-77
2021/10/12 00:58:47;;;;;;;44.75;23.27;;;;;;;14.34;82.18;99152.03;5032861;28;20085;-77
2021/10/12 01:01:12;;;;;;;53.13;23.83;;;;;;;14.32;82.02;99143.47;5032733;28;20140;-78
2021/10/12 01:03:38;;;;;;;40.80;21.38;;;;;;;14.07;82.37;99124.75;5032608;28;20407;-78
2021/10/12 01:06:04;;;;;;;35.13;21.60;;;;;;;13.82;82.21;99079.53;5032772;28;20021;-78
2021/10/12 01:08:30;;;;;;;34.50;20.70;;;;;;;13.64;82.25;99031.66;5032968;28;20025;-78
2021/10/12 01:10:56;;;;;;;30.95;19.85;;;;;;;14.15;81.70;99118.44;5032744;28;20028;-78
2021/10/12 01:13:22;;;;;;;32.35;20.00;;;;;;;13.89;81.65;99067.06;5032715;28;20032;-78
2021/10/12 01:15:49;;;;;;;28.23;18.27;;;;;;;14.17;81.71;99095.97;5032554;28;20049;-78
2021/10/12 01:18:14;;;;;;;24.90;18.27;;;;;;;14.02;81.49;99074.16;5032462;28;20033;-78
2021/10/12 01:20:41;;;;;;;28.00;18.13;;;;;;;14.35;81.49;99121.81;5032374;28;20104;-78
2021/10/12 01:23:07;;;;;;;24.15;16.85;;;;;;;14.37;81.52;99116.28;5032294;28;20029;-77
2021/10/12 01:25:33;;;;;;;24.42;15.68;;;;;;;14.24;81.36;99088.78;5032456;28;20029;-78
2021/10/12 01:27:59;;;;;;;25.02;16.25;;;;;;;14.11;81.05;99075.53;5032417;28;20426;-78
2021/10/12 01:30:24;;;;;;;22.52;15.43;;;;;;;14.09;81.22;99087.38;5032223;28;20048;-78
2021/10/12 01:32:50;;;;;;;19.98;13.77;;;;;;;14.11;81.06;99090.66;5032236;28;20057;-77
2021/10/12 01:35:15;;;;;;;23.60;14.93;;;;;;;14.52;81.17;99144.22;5032581;28;20021;-78
2021/10/12 01:37:41;;;;;;;23.70;15.13;;;;;;;14.16;81.39;99086.38;5032003;28;20021;-77
2021/10/12 01:40:09;;;;;;;26.40;17.13;;;;;;;14.28;81.12;99102.44;5032187;28;20022;-77
2021/10/12 01:42:35;;;;;;;24.02;14.85;;;;;;;14.49;81.35;99141.16;5032193;28;20068;-78
2021/10/12 01:45:06;;;;;;;22.25;13.90;;;;;;;14.45;81.18;99106.25;5032248;28;20135;-77
2021/10/12 01:47:31;;;;;;;24.77;13.93;;;;;;;14.46;81.19;99094.59;5032092;28;20403;-77
2021/10/12 01:49:56;;;;;;;24.48;14.27;;;;;;;14.21;81.37;99054.69;5032080;28;20026;-77
2021/10/12 01:52:22;;;;;;;21.05;13.20;;;;;;;14.36;81.65;99102.19;5032150;28;20030;-77
2021/10/12 01:54:48;;;;;;;21.08;12.23;;;;;;;14.44;81.42;99109.94;5031992;28;20029;-77
2021/10/12 01:57:13;;;;;;;19.40;11.70;;;;;;;14.06;81.47;99042.69;5032070;28;20048;-77
2021/10/12 01:59:39;;;;;;;19.05;11.70;;;;;;;14.25;81.67;99081.63;5031854;28;20024;-76
2021/10/12 02:02:05;;;;;;;19.13;12.63;;;;;;;14.34;82.05;99106.09;5031713;28;20525;-77
2021/10/12 02:04:32;;;;;;;19.25;12.38;;;;;;;14.27;82.04;99103.47;5031578;28;20025;-77
2021/10/12 02:06:58;;;;;;;19.08;13.73;;;;;;;13.90;81.98;99047.47;5031517;28;20041;-77
2021/10/12 02:09:24;;;;;;;21.25;14.52;;;;;;;14.12;81.92;99069.22;5031607;28;20080;-78
2021/10/12 02:11:49;;;;;;;19.02;12.63;;;;;;;14.21;81.96;99078.56;5031838;28;20037;-78
2021/10/12 02:14:15;;;;;;;16.05;12.32;;;;;;;13.95;81.80;99038.88;5031548;28;20017;-77
2021/10/12 02:16:40;;;;;;;15.27;11.65;;;;;;;14.27;81.84;99082.22;5031068;28;20074;-77
2021/10/12 02:19:06;;;;;;;18.30;13.57;;;;;;;14.07;81.72;99039.81;5031293;28;20029;-78
2021/10/12 02:21:31;;;;;;;16.88;12.30;;;;;;;13.95;81.38;99012.31;5031507;28;20095;-77
2021/10/12 02:23:57;;;;;;;17.85;12.60;;;;;;;14.33;81.54;99054.81;5031504;28;20064;-78
2021/10/12 02:26:23;;;;;;;15.75;11.10;;;;;;;14.04;81.49;98995.13;5031504;28;20029;-78
2021/10/12 02:28:48;;;;;;;16.52;12.18;;;;;;;14.06;81.46;99008.19;5031582;28;20024;-78
2021/10/12 02:31:14;;;;;;;16.98;12.15;;;;;;;14.29;81.38;99035.84;5031329;28;20029;-78
2021/10/12 02:33:40;;;;;;;17.08;12.48;;;;;;;14.20;81.24;99025.69;5031307;28;20017;-78
2021/10/12 02:36:06;;;;;;;16.40;12.07;;;;;;;13.89;81.18;99006.03;5031406;28;20029;-77
2021/10/12 02:38:32;;;;;;;20.10;13.27;;;;;;;14.35;81.45;99081.97;5031074;28;20030;-78
2021/10/12 02:40:57;;;;;;;17.55;12.52;;;;;;;14.18;81.02;99064.91;5030864;28;20037;-77
2021/10/12 02:43:22;;;;;;;17.20;12.57;;;;;;;14.00;81.35;99029.25;5031307;28;20033;-78
2021/10/12 02:45:48;;;;;;;17.35;13.13;;;;;;;14.32;81.25;99082.41;5013572;28;20040;-78
2021/10/12 02:48:14;;;;;;;16.02;12.65;;;;;;;14.31;81.16;99060.34;5031322;28;20048;-77
2021/10/12 02:50:40;;;;;;;14.20;11.48;;;;;;;14.34;81.45;99050.31;5031300;28;20029;-78
2021/10/12 02:53:05;;;;;;;17.20;12.75;;;;;;;14.12;81.18;98997.56;5031221;28;20022;-77
2021/10/12 02:55:31;;;;;;;18.00;12.00;;;;;;;13.92;81.09;98949.06;5031271;28;20387;-78
2021/10/12 02:57:56;;;;;;;15.45;11.88;;;;;;;14.00;80.99;98943.50;5031226;28;20580;-78
2021/10/12 03:00:22;;;;;;;17.55;12.65;;;;;;;14.15;81.53;98949.34;5031054;28;20101;-78
2021/10/12 03:02:47;;;;;;;15.30;11.80;;;;;;;14.04;81.03;98912.03;5031101;28;20038;-79
2021/10/12 03:05:12;;;;;;;16.85;12.35;;;;;;;14.09;81.25;98901.56;5031192;28;20028;-78
2021/10/12 03:07:39;;;;;;;16.80;13.00;;;;;;;13.94;81.35;98867.38;5031238;28;20021;-78
2021/10/12 03:10:06;;;;;;;17.27;12.55;;;;;;;13.87;81.24;98834.78;5031388;28;20021;-78
2021/10/12 03:12:31;;;;;;;14.52;10.90;;;;;;;14.42;81.64;98907.47;5030941;28;20032;-78
2021/10/12 03:14:58;;;;;;;11.05;8.90;;;;;;;14.20;81.42;98869.03;5030923;28;20049;-78
2021/10/12 03:17:23;;;;;;;11.48;9.20;;;;;;;13.86;81.85;98814.59;5030775;28;20513;-78
2021/10/12 03:19:48;;;;;;;9.18;6.70;;;;;;;13.79;81.52;98804.03;5030960;28;20862;-77
2021/10/12 03:22:15;;;;;;;7.00;6.25;;;;;;;14.29;81.80;98868.53;5030931;28;20059;-78
2021/10/12 03:24:42;;;;;;;9.35;6.78;;;;;;;14.43;81.71;98879.06;5030993;28;20448;-77
2021/10/12 03:27:08;;;;;;;6.55;5.43;;;;;;;14.38;81.95;98873.56;5013083;28;20025;-78
2021/10/12 03:29:34;;;;;;;7.35;6.07;;;;;;;14.49;81.82;98892.28;5030771;28;20490;-78
2021/10/12 03:31:59;;;;;;;6.85;5.88;;;;;;;14.02;81.81;98842.41;5030768;28;20009;-78
2021/10/12 03:34:26;;;;;;;8.73;7.72;;;;;;;14.00;82.15;98882.44;5030815;28;20017;-78
2021/10/12 03:36:52;;;;;;;11.48;9.35;;;;;;;14.36;82.13;98969.41;5030856;28;20028;-77
2021/10/12 03:39:18;;;;;;;9.73;8.73;;;;;;;13.91;81.92;98903.13;5030646;28;20107;-77
2021/10/12 03:41:43;;;;;;;11.20;9.90;;;;;;;14.18;81.50;98924.19;5030741;28;20057;-78
2021/10/12 03:44:09;;;;;;;11.32;10.15;;;;;;;14.23;81.56;98933.13;5012958;28;20022;-77
2021/10/12 03:46:34;;;;;;;12.25;10.48;;;;;;;14.10;81.31;98933.22;5030714;28;20024;-77
2021/10/12 03:48:59;;;;;;;10.55;9.45;;;;;;;13.97;81.25;98934.13;5030604;28;20017;-78
2021/10/12 03:51:25;;;;;;;11.77;9.95;;;;;;;13.80;81.58;98911.78;5030798;28;20391;-78
2021/10/12 03:53:50;;;;;;;11.20;10.00;;;;;;;13.76;81.51;98907.13;5015297;28;20026;-78
2021/10/12 03:56:16;;;;;;;11.27;9.80;;;;;;;14.03;81.61;98956.34;5034181;28;20101;-77
2021/10/12 03:58:41;;;;;;;11.52;9.43;;;;;;;14.12;81.31;98963.03;5034022;28;20039;-77
2021/10/12 04:01:07;;;;;;;16.30;11.95;;;;;;;13.86;81.17;98902.16;5016197;28;20023;-77
2021/10/12 04:03:32;;;;;;;13.45;11.07;;;;;;;13.97;80.91;98914.72;5033877;28;20028;-78
2021/10/12 04:05:57;;;;;;;11.68;10.48;;;;;;;14.24;80.87;98956.00;5033847;28;20028;-78
2021/10/12 04:08:23;;;;;;;12.75;11.23;;;;;;;13.80;80.81;98881.78;5033778;28;20021;-77
2021/10/12 04:10:48;;;;;;;12.95;11.43;;;;;;;13.75;80.91;98887.72;5034106;28;20033;-78
2021/10/12 04:13:14;;;;;;;12.73;11.30;;;;;;;13.97;80.75;98910.22;5033943;28;20026;-78
2021/10/12 04:15:39;;;;;;;15.65;12.30;;;;;;;14.24;80.91;98947.22;5033548;28;20042;-78
2021/10/12 04:18:05;;;;;;;14.35;12.50;;;;;;;13.32;80.62;98814.13;5015934;28;20103;-78
2021/10/12 04:20:32;;;;;;;16.02;13.45;;;;;;;13.91;80.78;98905.78;5033803;28;20533;-78
2021/10/12 04:22:58;;;;;;;10.93;9.82;;;;;;;14.25;80.78;98956.81;5033759;28;20529;-77
2021/10/12 04:25:24;;;;;;;12.73;11.43;;;;;;;14.02;80.67;98935.31;5033575;28;20051;-77
2021/10/12 04:27:51;;;;;;;12.20;10.82;;;;;;;13.84;80.50;98904.19;5033373;28;20029;-77
2021/10/12 04:30:17;;;;;;;12.57;11.05;;;;;;;13.80;80.52;98882.59;5033616;28;20028;-77
2021/10/12 04:32:42;;;;;;;13.55;11.55;;;;;;;13.99;80.95;98917.97;5033501;28;20418;-78
2021/10/12 04:35:08;;;;;;;13.70;11.18;;;;;;;13.95;80.67;98891.06;5033635;28;20017;-76
2021/10/12 04:37:33;;;;;;;13.55;11.45;;;;;;;14.26;80.66;98937.19;5033095;28;20030;-77
2021/10/12 04:39:59;;;;;;;14.60;12.00;;;;;;;13.95;80.72;98882.28;5033310;28;20029;-77
2021/10/12 04:42:24;;;;;;;13.57;11.45;;;;;;;14.11;80.71;98910.13;5033280;28;20040;-77
2021/10/12 04:44:53;;;;;;;14.07;12.63;;;;;;;14.28;80.82;98932.50;5015562;28;20444;-77
2021/10/12 04:47:20;;;;;;;14.90;12.32;;;;;;;14.30;80.84;98936.56;5033051;28;20023;-77
2021/10/12 04:49:47;;;;;;;15.60;13.55;;;;;;;13.75;80.92;98861.19;5033289;28;20083;-78
2021/10/12 04:52:13;;;;;;;15.90;12.88;;;;;;;13.86;80.78;98863.16;5033312;28;20113;-76
2021/10/12 04:54:38;;;;;;;18.13;14.07;;;;;;;13.89;80.76;98865.38;5033086;28;20104;-76
2021/10/12 04:57:04;;;;;;;15.73;12.95;;;;;;;13.68;81.13;98829.41;5032974;28;20568;-76
2021/10/12 04:59:29;;;;;;;17.23;14.13;;;;;;;13.91;80.85;98865.97;5033030;28;20032;-76
2021/10/12 05:01:55;;;;;;;17.50;13.95;;;;;;;14.23;80.94;98911.09;5032645;28;20413;-77
2021/10/12 05:04:20;;;;;;;22.15;18.08;;;;;;;13.70;81.30;98839.81;5032056;28;20021;-77
2021/10/12 05:06:46;;;;;;;28.65;22.05;;;;;;;14.12;81.16;98885.22;5032704;28;20075;-77
2021/10/12 05:09:11;;;;;;;25.83;19.35;;;;;;;14.04;81.16;98880.97;5014852;28;20075;-77
2021/10/12 05:11:36;;;;;;;16.83;13.43;;;;;;;14.15;81.11;98882.16;5032667;28;20036;-77
2021/10/12 05:14:02;;;;;;;16.98;13.95;;;;;;;13.84;80.92;98840.53;5032635;28;20056;-77
2021/10/12 05:16:29;;;;;;;32.45;22.38;;;;;;;13.80;81.22;98821.56;5032000;28;20067;-77
2021/10/12 05:18:57;;;;;;;33.25;26.10;;;;;;;14.24;81.02;98892.28;5032244;28;20025;-76
2021/10/12 05:21:23;;;;;;;26.77;20.90;;;;;;;14.25;81.16;98888.59;5032388;28;20025;-77
2021/10/12 05:23:49;;;;;;;23.70;18.20;;;;;;;13.99;81.22;98859.59;5032323;28;20119;-76
2021/10/12 05:26:14;;;;;;;18.08;14.02;;;;;;;14.04;81.12;98859.75;5032198;28;20025;-77
2021/10/12 05:28:40;;;;;;;24.90;15.60;;;;;;;13.89;81.12;98840.69;5032293;28;20044;-78
2021/10/12 05:31:06;;;;;;;22.58;16.13;;;;;;;13.87;81.35;98835.59;5032044;28;20025;-76
2021/10/12 05:33:31;;;;;;;22.48;15.95;;;;;;;13.82;81.15;98818.69;5031915;28;20029;-77
2021/10/12 05:35:57;;;;;;;21.85;16.17;;;;;;;13.63;81.35;98788.66;5032054;28;20053;-77
2021/10/12 05:38:22;;;;;;;23.15;16.00;;;;;;;14.01;81.37;98844.25;5031922;28;20084;-78
2021/10/12 05:40:48;;;;;;;19.77;15.40;;;;;;;13.89;81.42;98827.41;5031947;28;20028;-78
2021/10/12 05:43:15;;;;;;;17.77;14.07;;;;;;;13.87;81.50;98834.78;5031757;28;20018;-78
2021/10/12 05:45:41;;;;;;;17.65;14.13;;;;;;;14.19;81.53;98862.91;5031874;28;20403;-77
2021/10/12 05:48:07;;;;;;;16.88;13.48;;;;;;;14.38;81.13;98900.94;5031876;28;20014;-77
2021/10/12 05:50:35;;;;;;;18.40;14.15;;;;;;;14.42;81.11;98901.31;5031893;28;20021;-78
2021/10/12 06:01:23;;;;;;;18.38;14.63;;;;;;;14.43;80.99;98900.31;5008767;28;20029;-78
2021/10/12 06:03:48;;;;;;;25.75;16.92;;;;;;;14.02;80.91;98853.84;5013562;28;20024;-77
2021/10/12 06:06:14;;;;;;;19.98;15.13;;;;;;;14.51;80.89;98916.78;5031393;28;20484;-78
2021/10/12 06:08:41;;;;;;;22.90;16.98;;;;;;;14.53;81.13;98917.38;5013712;28;20028;-78
2021/10/12 06:11:08;;;;;;;22.17;17.13;;;;;;;14.57;81.14;98920.41;5031204;28;20022;-77
2021/10/12 06:13:36;;;;;;;21.45;16.17;;;;;;;14.63;81.09;98917.69;5031349;28;20017;-77
2021/10/12 06:16:02;;;;;;;24.60;17.17;;;;;;;14.52;81.12;98883.88;5030525;28;20099;-77
2021/10/12 06:18:28;;;;;;;23.90;17.00;;;;;;;14.37;81.08;98851.50;5031421;28;20025;-78
2021/10/12 06:20:54;;;;;;;23.55;17.98;;;;;;;14.66;80.85;98892.53;5031350;28;20037;-78
2021/10/12 06:23:21;;;;;;;24.90;17.85;;;;;;;14.78;80.83;98904.06;5030398;28;20486;-77
2021/10/12 06:25:47;;;;;;;26.85;18.25;;;;;;;14.48;81.08;98858.78;5030775;28;20572;-77
2021/10/12 06:28:14;;;;;;;29.63;19.92;;;;;;;14.80;81.10;98911.81;5012379;28;20100;-77
2021/10/12 06:30:40;;;;;;;27.40;19.90;;;;;;;14.63;80.90;98877.84;5012987;28;20060;-76
2021/10/12 06:33:06;;;;;;;32.47;23.50;;;;;;;14.82;80.79;98899.09;5030651;28;20017;-76
2021/10/12 06:35:31;;;;;;;34.13;26.30;;;;;;;14.69;80.70;98880.66;5030077;28;20029;-75
2021/10/12 06:38:01;;;;;;;32.42;24.63;;;;;;;14.85;80.90;98891.50;5028628;28;20044;-77
2021/10/12 06:40:28;;;;;;;31.80;24.25;;;;;;;14.70;81.00;98884.94;5022881;28;20052;-77
2021/10/12 06:42:54;;;;;;;27.33;20.23;;;;;;;14.45;81.01;98829.19;5031023;28;20025;-77
2021/10/12 06:45:19;;;;;;;25.73;19.80;;;;;;;14.50;81.01;98839.97;5030122;28;20033;-76
2021/10/12 06:47:46;;;;;;;28.27;21.48;;;;;;;14.41;80.87;98812.88;5008571;28;20507;-76
2021/10/12 06:50:12;;;;;;;23.05;17.98;;;;;;;14.86;80.93;98879.03;5030914;28;20033;-77
2021/10/12 06:52:38;;;;;;;24.58;19.25;;;;;;;14.96;80.99;98900.63;5026409;28;20076;-76
2021/10/12 06:55:05;;;;;;;19.90;16.85;;;;;;;14.61;80.69;98845.38;5023397;28;20127;-74
2021/10/12 06:57:30;;;;;;;20.45;17.05;;;;;;;14.51;80.56;98834.44;5012172;28;20044;-76
2021/10/12 06:59:56;;;;;;;21.75;16.60;;;;;;;14.88;80.70;98882.31;5030048;28;20033;-78
2021/10/12 07:02:21;;;;;;;20.67;17.52;;;;;;;14.51;81.21;98826.47;5029687;28;20020;-77
2021/10/12 07:04:47;;;;;;;18.08;15.15;;;;;;;14.57;80.70;98825.59;5030321;28;20037;-78
2021/10/12 07:07:12;;;;;;;19.38;16.45;;;;;;;14.92;80.61;98884.28;5030681;28;20504;-77
2021/10/12 07:09:38;;;;;;;22.90;19.40;;;;;;;14.97;80.72;98904.09;5011718;28;20032;-77
2021/10/12 07:12:04;;;;;;;23.23;19.05;;;;;;;14.92;80.54;98883.47;5030498;28;20029;-78
2021/10/12 07:14:29;;;;;;;24.38;20.33;;;;;;;14.58;80.72;98837.84;5012343;28;20439;-78
2021/10/12 07:16:55;;;;;;;20.33;17.63;;;;;;;14.90;80.19;98865.09;5030531;28;20033;-77
2021/10/12 07:19:21;;;;;;;21.13;18.45;;;;;;;15.21;80.63;98911.16;5029958;28;20029;-77
2021/10/12 07:21:47;;;;;;;21.25;18.73;;;;;;;15.17;80.37;98891.38;5030404;28;20557;-77
2021/10/12 07:24:12;;;;;;;27.33;23.80;;;;;;;15.34;80.47;98904.88;5017624;28;20061;-78
2021/10/12 07:26:39;;;;;;;19.05;17.00;;;;;;;14.98;79.81;98824.13;5028317;28;20094;-78
2021/10/12 07:29:04;;;;;;;18.27;16.10;;;;;;;15.43;79.51;98891.03;5015860;28;20075;-79
2021/10/12 07:31:31;;;;;;;15.98;14.35;;;;;;;14.98;79.50;98833.94;5015808;28;20041;-77
2021/10/12 07:33:57;;;;;;;17.38;14.57;;;;;;;15.04;79.87;98847.16;5023267;28;20030;-78
2021/10/12 07:36:22;;;;;;;17.27;15.48;;;;;;;15.22;79.32;98868.38;5028394;28;20044;-77
2021/10/12 07:38:48;;;;;;;17.35;15.27;;;;;;;14.85;79.72;98817.09;5033716;28;20118;-78
2021/10/12 07:41:13;;;;;;;19.02;15.68;;;;;;;14.93;79.53;98837.25;5033880;28;20079;-78
2021/10/12 07:43:39;;;;;;;17.70;15.77;;;;;;;15.36;79.98;98910.78;5033952;28;20037;-78
2021/10/12 07:46:05;;;;;;;15.50;13.88;;;;;;;15.15;79.73;98867.66;5033955;28;20033;-78
2021/10/12 07:48:31;;;;;;;17.55;14.20;;;;;;;14.96;79.63;98846.63;5033066;28;20482;-78
2021/10/12 07:50:57;;;;;;;20.70;16.58;;;;;;;14.98;80.01;98864.00;5033769;28;20033;-78
2021/10/12 07:53:22;;;;;;;18.30;14.98;;;;;;;14.90;79.80;98843.03;5033778;28;20044;-79
2021/10/12 07:55:54;;;;;;;24.25;17.02;;;;;;;14.57;79.87;98799.03;5030437;28;20036;-78
2021/10/12 07:58:19;;;;;;;16.65;13.98;;;;;;;15.09;79.83;98889.00;5018296;28;20028;-78
2021/10/12 08:00:45;;;;;;;18.02;15.65;;;;;;;15.21;80.08;98905.84;5032769;28;20029;-77
2021/10/12 08:03:10;;;;;;;17.27;15.02;;;;;;;14.74;79.97;98852.38;5014831;28;20391;-78
2021/10/12 08:05:37;;;;;;;18.27;14.45;;;;;;;15.02;79.77;98889.09;5017764;28;20030;-78
2021/10/12 08:08:03;;;;;;;17.13;14.40;;;;;;;15.08;80.20;98885.53;5032940;28;20029;-77
2021/10/12 08:10:29;;;;;;;18.70;15.02;;;;;;;14.68;80.02;98812.59;5015676;28;20033;-78
2021/10/12 08:12:57;;;;;;;17.38;14.93;;;;;;;14.93;80.02;98851.38;5014296;28;20052;-77
2021/10/12 08:15:23;;;;;;;19.92;16.85;;;;;;;14.80;79.67;98829.41;5031872;28;20037;-78
2021/10/12 08:17:49;;;;;;;18.70;16.15;;;;;;;15.07;79.71;98859.19;5032893;28;20029;-77
2021/10/12 08:20:15;;;;;;;17.17;14.95;;;;;;;14.83;79.82;98829.78;5032945;28;20025;-78
2021/10/12 08:22:40;;;;;;;19.70;16.67;;;;;;;15.22;79.98;98897.63;5014255;28;20079;-78
2021/10/12 08:25:09;;;;;;;23.52;17.40;;;;;;;14.97;80.01;98843.75;5032957;28;20029;-78
2021/10/12 08:27:35;;;;;;;19.80;16.60;;;;;;;14.93;79.99;98826.63;5032936;28;20025;-78
2021/10/12 08:30:03;;;;;;;19.88;15.77;;;;;;;15.22;79.64;98876.38;5033045;28;20517;-77
2021/10/12 08:32:28;;;;;;;20.77;16.30;;;;;;;15.30;79.62;98880.56;5024743;28;20487;-78
2021/10/12 08:34:53;;;;;;;21.35;17.35;;;;;;;14.78;79.73;98810.22;5029635;28;20029;-77
2021/10/12 08:37:19;;;;;;;23.00;18.35;;;;;;;14.99;79.71;98824.94;5032850;28;20399;-78
2021/10/12 08:39:45;;;;;;;20.38;16.77;;;;;;;15.15;79.88;98851.72;5032121;28;20063;-77
2021/10/12 08:42:34;;;;;;;22.63;16.83;;;;;;;15.28;80.16;98869.34;5032343;28;20079;-78
2021/10/12 08:45:07;;;;;;;21.88;17.10;;;;;;;15.25;79.98;98862.63;5032746;28;20490;-78
2021/10/12 08:47:35;;;;;;;20.73;15.80;;;;;;;14.92;80.11;98806.41;5032320;28;20061;-76
2021/10/12 08:50:02;;;;;;;20.27;16.83;;;;;;;15.25;80.07;98851.97;5032640;28;20461;-77
2021/10/12 08:52:28;;;;;;;24.35;19.55;;;;;;;15.24;79.93;98842.38;5032192;28;20087;-78
2021/10/12 08:54:55;;;;;;;21.52;18.05;;;;;;;15.13;79.68;98819.22;5031818;28;20033;-77
2021/10/12 08:57:38;;;;;;;21.63;17.65;;;;;;;15.48;79.48;98861.09;5032775;28;20052;-77
2021/10/12 09:00:18;;;;;;;25.88;19.55;;;;;;;15.43;79.21;98852.97;5032615;28;20498;-78
2021/10/12 09:03:18;;;;;;;25.25;19.90;;;;;;;15.06;79.17;98791.09;5032121;28;20029;-78
2021/10/12 09:05:54;;;;;;;28.45;20.52;;;;;;;15.05;79.17;98808.88;5032142;28;20087;-78
2021/10/12 09:08:32;;;;;;;25.00;20.25;;;;;;;15.43;79.35;98859.09;5031960;28;20043;-76
2021/10/12 09:10:59;;;;;;;24.55;19.55;;;;;;;15.37;79.39;98853.88;5032190;28;20029;-77
2021/10/12 09:13:26;;;;;;;23.67;16.73;;;;;;;15.27;79.52;98833.94;5031758;28;20032;-77
2021/10/12 09:16:12;;;;;;;22.40;17.02;;;;;;;15.11;79.46;98813.31;5030871;28;20156;-76
2021/10/12 09:18:46;;;;;;;19.42;16.05;;;;;;;15.30;79.58;98835.34;5027505;28;20045;-77
2021/10/12 09:21:17;;;;;;;19.70;16.33;;;;;;;14.88;79.60;98776.00;5011268;28;20037;-77
2021/10/12 09:23:43;;;;;;;25.97;19.77;;;;;;;15.25;79.74;98820.06;5014026;28;20040;-77
2021/10/12 09:26:39;;;;;;;25.70;18.23;;;;;;;15.23;80.14;98840.75;5031948;28;20037;-77
2021/10/12 09:29:09;;;;;;;24.35;18.77;;;;;;;15.25;79.87;98835.22;5015739;28;20037;-77
2021/10/12 09:31:43;;;;;;;23.23;18.30;;;;;;;15.03;80.10;98804.84;5031594;28;20108;-78
2021/10/12 09:34:11;;;;;;;19.58;16.30;;;;;;;15.28;79.59;98824.13;5031805;28;20406;-78
2021/10/12 09:36:39;;;;;;;22.48;17.70;;;;;;;14.80;79.69;98736.41;5031469;28;20387;-78
2021/10/12 09:39:07;;;;;;;21.80;16.77;;;;;;;15.22;79.51;98801.91;5031718;28;20034;-77
2021/10/12 09:41:33;;;;;;;19.23;16.02;;;;;;;14.98;79.54;98768.28;5031739;28;20112;-77
2021/10/12 09:44:13;;;;;;;20.88;16.77;;;;;;;15.30;79.55;98805.28;5031369;28;20097;-77
2021/10/12 09:46:45;;;;;;;21.25;16.98;;;;;;;14.89;79.85;98737.75;5031457;28;20029;-77
2021/10/12 09:49:24;;;;;;;22.08;16.98;;;;;;;15.34;79.56;98795.81;5031616;28;20453;-78
2021/10/12 09:52:00;;;;;;;20.15;16.83;;;;;;;15.35;79.52;98787.59;5012844;28;20028;-78
2021/10/12 09:54:31;;;;;;;18.80;16.70;;;;;;;15.33;79.70;98789.69;5011931;28;20049;-77
2021/10/12 09:56:58;;;;;;;20.00;16.13;;;;;;;15.32;79.96;98785.41;5031340;28;20415;-77
2021/10/12 09:59:24;;;;;;;20.75;16.95;;;;;;;15.32;79.90;98784.59;5030727;28;20032;-77
2021/10/12 10:01:52;;;;;;;19.75;16.98;;;;;;;15.17;79.92;98753.91;5031060;28;20086;-77
2021/10/12 10:04:19;;;;;;;21.67;19.38;;;;;;;15.34;79.68;98771.88;5031379;28;20510;-77
2021/10/12 10:06:49;;;;;;;20.65;18.00;;;;;;;15.35;79.74;98770.84;5030962;28;20029;-77
2021/10/12 10:09:18;;;;;;;21.58;19.25;;;;;;;14.85;79.91;98692.16;5030379;28;20028;-76
2021/10/12 10:11:44;;;;;;;24.00;20.80;;;;;;;15.29;80.10;98755.78;5031083;28;20021;-77
2021/10/12 10:14:12;;;;;;;22.55;19.48;;;;;;;15.31;79.97;98759.84;5013497;28;20116;-78
2021/10/12 10:16:52;;;;;;;26.02;19.52;;;;;;;15.25;79.72;98750.91;5049001;28;20059;-77
2021/10/12 10:19:21;;;;;;;24.15;21.55;;;;;;;15.04;79.59;98706.25;5044983;28;20164;-79
2021/10/12 10:21:49;;;;;;;21.15;18.80;;;;;;;15.12;79.68;98727.19;5030736;28;20049;-79
2021/10/12 10:24:40;;;;;;;22.60;18.42;;;;;;;14.85;79.71;98680.72;5031435;28;20505;-78
2021/10/12 10:27:07;;;;;;;24.88;20.65;;;;;;;15.33;80.08;98754.28;5018671;28;20036;-78
2021/10/12 10:29:37;;;;;;;25.73;21.67;;;;;;;15.24;80.07;98732.53;5011446;28;20026;-78
2021/10/12 10:32:17;;;;;;;20.75;18.15;;;;;;;15.34;80.18;98737.28;5011488;28;20030;-77
2021/10/12 10:35:03;;;;;;;20.98;17.17;;;;;;;14.79;80.04;98649.75;5011826;28;20126;-77
2021/10/12 10:37:32;;;;;;;17.83;15.25;;;;;;;15.12;79.88;98705.91;5042478;28;20036;-76
2021/10/12 10:40:01;;;;;;;18.98;16.08;;;;;;;15.35;79.90;98730.94;5032018;28;20034;-76
2021/10/12 10:42:26;;;;;;;16.98;14.90;;;;;;;15.34;79.82;98729.31;5031191;28;20025;-76
2021/10/12 10:45:02;;;;;;;16.20;13.93;;;;;;;15.33;80.11;98738.34;5024096;28;20088;-76
2021/10/12 10:47:47;;;;;;;18.73;15.88;;;;;;;15.29;79.91;98729.19;5014933;28;20038;-77
2021/10/12 10:50:14;;;;;;;18.00;15.48;;;;;;;15.30;79.92;98730.81;5039475;28;20029;-77
2021/10/12 10:52:50;;;;;;;16.45;14.65;;;;;;;15.32;79.89;98712.78;5050555;28;20029;-76
2021/10/12 10:55:21;;;;;;;17.50;14.38;;;;;;;14.94;79.91;98653.63;5050588;28;20025;-76
2021/10/12 10:58:04;;;;;;;16.05;12.88;;;;;;;15.28;80.24;98699.13;5032640;28;20025;-76
2021/10/12 11:00:52;;;;;;;18.58;15.05;;;;;;;15.29;80.11;98702.59;5032904;28;20528;-77
2021/10/12 11:03:29;;;;;;;15.55;12.20;;;;;;;15.23;80.08;98691.03;5053859;28;20048;-77
2021/10/12 11:06:13;;;;;;;15.95;14.10;;;;;;;15.22;80.02;98692.88;5054721;28;20059;-77
2021/10/12 11:08:58;;;;;;;14.63;13.02;;;;;;;14.85;80.21;98636.38;5023283;28;20109;-76
2021/10/12 11:11:24;;;;;;;16.55;13.35;;;;;;;14.68;80.19;98608.81;5034425;28;20032;-77
2021/10/12 11:13:51;;;;;;;14.90;13.40;;;;;;;14.93;80.28;98659.19;5034609;28;20483;-77
2021/10/12 11:16:17;;;;;;;14.23;12.68;;;;;;;15.17;80.33;98687.44;5034435;28;20502;-76
2021/10/12 11:18:44;;;;;;;15.98;12.70;;;;;;;15.12;79.85;98676.66;5034361;28;20041;-76
2021/10/12 11:21:13;;;;;;;12.57;11.25;;;;;;;15.17;79.81;98671.47;5016837;28;20486;-77
2021/10/12 11:23:48;;;;;;;15.85;13.55;;;;;;;15.07;79.95;98663.25;5016201;28;20116;-76
2021/10/12 11:26:19;;;;;;;15.30;13.38;;;;;;;15.01;80.29;98653.53;5016774;28;20504;-76